This is the latest recevied weather packets stored in our database for station/object KK7NDB. If no packets are shown the sender has not sent any weather packets the latest 1 day(s).
| Time | Temp. | Humidity | Pressure | Rain* | Wind** | Luminosity | Snow |
|---|---|---|---|---|---|---|---|
| 1778091932 | 10.56° C | 42% | 1008.6 hPa | 0 mm | - | 849 W/m² | - |
| 1778091327 | 10° C | 48% | 1008.5 hPa | 0 mm | - | 842 W/m² | - |
| 1778090720 | 9.44° C | 51% | 1008.5 hPa | 0 mm | - | 830 W/m² | - |
| 1778089204 | 8.89° C | 46% | 1008.2 hPa | 0 mm | - | 800 W/m² | - |
| 1778088902 | 8.89° C | 43% | 1008.2 hPa | 0 mm | - | 792 W/m² | - |
| 1778087992 | 8.33° C | 53% | 1008.1 hPa | 0 mm | - | 764 W/m² | - |
| 1778087084 | 8.89° C | 50% | 1007.9 hPa | 0 mm | - | 731 W/m² | - |
| 1778084955 | 8.33° C | 59% | 1007.8 hPa | 0 mm | - | 653 W/m² | - |
| 1778084653 | 7.78° C | 60% | 1007.7 hPa | 0 mm | - | 638 W/m² | - |
| 1778081714 | 7.78° C | 63% | 1006.8 hPa | 0 mm | - | 493 W/m² | - |
| 1778081411 | 7.22° C | 61% | 1006.9 hPa | 0 mm | - | 479 W/m² | - |
| 1778080201 | 5.56° C | 64% | 1006.7 hPa | 0 mm | - | 423 W/m² | - |
| 1778079594 | 5.56° C | 69% | 1006.6 hPa | 0 mm | - | 382 W/m² | - |
| 1778079290 | 5° C | 69% | 1006.5 hPa | 0 mm | - | 366 W/m² | - |
| 1778078988 | 4.44° C | 69% | 1006.5 hPa | 0 mm | - | 346 W/m² | - |
| 1778078079 | 5.56° C | 67% | 1006.5 hPa | 0 mm | - | 216 W/m² | - |
| 1778077475 | 5.56° C | 68% | 1006.5 hPa | 0 mm | - | 234 W/m² | - |
| 1778076870 | 6.11° C | 66% | 1006.2 hPa | 0 mm | - | 264 W/m² | - |
| 1778076266 | 6.11° C | 66% | 1006 hPa | 0 mm | - | 331 W/m² | - |
| 1778075962 | 6.11° C | 69% | 1005.8 hPa | 0 mm | - | 289 W/m² | - |
| 1778075660 | 7.22° C | 65% | 1005.9 hPa | 0 mm | - | 231 W/m² | - |
| 1778075052 | 6.67° C | 65% | 1005.6 hPa | 0 mm | - | 150 W/m² | - |
| 1778074446 | 6.67° C | 69% | 1005.8 hPa | 0 mm | - | 109 W/m² | - |
| 1778073840 | 1.11° C | 85% | 1005.3 hPa | 0 mm | - | 5 W/m² | - |
| 1778072931 | 1.11° C | 85% | 1005.2 hPa | 0 mm | - | 5 W/m² | - |
* Rain latest hour (hover to see other rain measurements)
** Current wind speed in m/s (hover to see current wind gust speed)